sensor_id;sensor_type;location;lat;lon;timestamp;temperature;humidity
41547;DHT22;27271;45.412;10.852;2023-02-01T00:02:22;-0.80;99.90
41547;DHT22;27271;45.412;10.852;2023-02-01T00:05:44;-0.80;99.90
41547;DHT22;27271;45.412;10.852;2023-02-01T00:09:16;-0.90;99.90
41547;DHT22;27271;45.412;10.852;2023-02-01T00:12:37;-0.90;99.90
41547;DHT22;27271;45.412;10.852;2023-02-01T00:16:28;-0.90;99.90
41547;DHT22;27271;45.412;10.852;2023-02-01T00:19:50;-1.00;99.90
41547;DHT22;27271;45.412;10.852;2023-02-01T00:23:12;-1.00;99.90
41547;DHT22;27271;45.412;10.852;2023-02-01T00:26:40;-1.10;99.90
41547;DHT22;27271;45.412;10.852;2023-02-01T00:30:03;-1.10;99.90
41547;DHT22;27271;45.412;10.852;2023-02-01T00:33:25;-1.10;99.90
41547;DHT22;27271;45.412;10.852;2023-02-01T00:36:48;-1.00;99.90
41547;DHT22;27271;45.412;10.852;2023-02-01T00:40:10;-1.10;99.90
41547;DHT22;27271;45.412;10.852;2023-02-01T00:43:32;-1.10;99.90
41547;DHT22;27271;45.412;10.852;2023-02-01T00:46:54;-1.20;99.90
41547;DHT22;27271;45.412;10.852;2023-02-01T00:50:16;-1.20;99.90
41547;DHT22;27271;45.412;10.852;2023-02-01T00:53:39;-1.20;99.90
41547;DHT22;27271;45.412;10.852;2023-02-01T00:57:01;-1.10;99.90
41547;DHT22;27271;45.412;10.852;2023-02-01T01:00:23;-1.10;99.90
41547;DHT22;27271;45.412;10.852;2023-02-01T01:03:51;-1.10;99.90
41547;DHT22;27271;45.412;10.852;2023-02-01T01:07:16;-1.10;99.90
41547;DHT22;27271;45.412;10.852;2023-02-01T01:10:38;-1.00;99.90
41547;DHT22;27271;45.412;10.852;2023-02-01T01:14:00;-1.10;99.90
41547;DHT22;27271;45.412;10.852;2023-02-01T01:17:22;-1.10;99.90
41547;DHT22;27271;45.412;10.852;2023-02-01T01:20:44;-1.10;99.90
41547;DHT22;27271;45.412;10.852;2023-02-01T01:24:06;-1.10;99.90
41547;DHT22;27271;45.412;10.852;2023-02-01T01:27:28;-1.10;99.90
41547;DHT22;27271;45.412;10.852;2023-02-01T01:30:50;-1.20;99.90
41547;DHT22;27271;45.412;10.852;2023-02-01T01:34:13;-1.20;99.90
41547;DHT22;27271;45.412;10.852;2023-02-01T01:37:35;-1.20;99.90
41547;DHT22;27271;45.412;10.852;2023-02-01T01:40:57;-1.30;99.90
41547;DHT22;27271;45.412;10.852;2023-02-01T01:48:28;-1.40;99.90
41547;DHT22;27271;45.412;10.852;2023-02-01T01:51:55;-1.40;99.90
41547;DHT22;27271;45.412;10.852;2023-02-01T01:55:20;-1.40;99.90
41547;DHT22;27271;45.412;10.852;2023-02-01T01:58:44;-1.40;99.90
41547;DHT22;27271;45.412;10.852;2023-02-01T02:02:06;-1.30;99.90
41547;DHT22;27271;45.412;10.852;2023-02-01T02:05:29;-1.40;99.90
41547;DHT22;27271;45.412;10.852;2023-02-01T02:08:51;-1.50;99.90
41547;DHT22;27271;45.412;10.852;2023-02-01T02:12:14;-1.60;99.90
41547;DHT22;27271;45.412;10.852;2023-02-01T02:15:41;-1.60;99.90
41547;DHT22;27271;45.412;10.852;2023-02-01T02:49:34;-1.60;99.90
41547;DHT22;27271;45.412;10.852;2023-02-01T02:53:12;-1.70;99.90
41547;DHT22;27271;45.412;10.852;2023-02-01T02:56:55;-1.80;99.90
41547;DHT22;27271;45.412;10.852;2023-02-01T03:00:38;-1.90;99.90
41547;DHT22;27271;45.412;10.852;2023-02-01T03:04:19;-1.90;99.90
41547;DHT22;27271;45.412;10.852;2023-02-01T03:11:14;-2.10;99.90
41547;DHT22;27271;45.412;10.852;2023-02-01T03:14:38;-2.10;99.90
41547;DHT22;27271;45.412;10.852;2023-02-01T03:18:10;-2.00;99.90
41547;DHT22;27271;45.412;10.852;2023-02-01T03:25:10;-2.00;99.90
41547;DHT22;27271;45.412;10.852;2023-02-01T03:28:34;-2.00;99.90
41547;DHT22;27271;45.412;10.852;2023-02-01T03:31:58;-2.00;99.90
41547;DHT22;27271;45.412;10.852;2023-02-01T03:35:29;-2.00;99.90
41547;DHT22;27271;45.412;10.852;2023-02-01T03:39:01;-1.90;99.90
41547;DHT22;27271;45.412;10.852;2023-02-01T03:42:38;-1.80;99.90
41547;DHT22;27271;45.412;10.852;2023-02-01T03:46:06;-1.80;99.90
41547;DHT22;27271;45.412;10.852;2023-02-01T03:49:49;-1.90;99.90
41547;DHT22;27271;45.412;10.852;2023-02-01T03:53:16;-2.00;99.90
41547;DHT22;27271;45.412;10.852;2023-02-01T03:56:42;-1.90;99.90
41547;DHT22;27271;45.412;10.852;2023-02-01T04:00:25;-2.00;99.90
41547;DHT22;27271;45.412;10.852;2023-02-01T04:03:49;-2.00;99.90
41547;DHT22;27271;45.412;10.852;2023-02-01T04:07:13;-2.00;99.90
41547;DHT22;27271;45.412;10.852;2023-02-01T04:10:35;-2.00;99.90
41547;DHT22;27271;45.412;10.852;2023-02-01T04:13:57;-2.00;99.90
41547;DHT22;27271;45.412;10.852;2023-02-01T04:17:19;-2.00;99.90
41547;DHT22;27271;45.412;10.852;2023-02-01T04:20:42;-2.10;99.90
41547;DHT22;27271;45.412;10.852;2023-02-01T04:24:05;-2.20;99.90
41547;DHT22;27271;45.412;10.852;2023-02-01T04:27:27;-2.20;99.90
41547;DHT22;27271;45.412;10.852;2023-02-01T04:30:49;-2.20;99.90
41547;DHT22;27271;45.412;10.852;2023-02-01T04:34:11;-2.30;99.90
41547;DHT22;27271;45.412;10.852;2023-02-01T04:37:34;-2.30;99.90
41547;DHT22;27271;45.412;10.852;2023-02-01T04:40:56;-2.40;99.90
41547;DHT22;27271;45.412;10.852;2023-02-01T04:44:18;-2.40;99.90
41547;DHT22;27271;45.412;10.852;2023-02-01T04:47:40;-2.50;99.90
41547;DHT22;27271;45.412;10.852;2023-02-01T04:51:03;-2.40;99.90
41547;DHT22;27271;45.412;10.852;2023-02-01T04:54:25;-2.50;99.90
41547;DHT22;27271;45.412;10.852;2023-02-01T04:57:47;-2.60;99.90
41547;DHT22;27271;45.412;10.852;2023-02-01T05:01:09;-2.60;99.90
41547;DHT22;27271;45.412;10.852;2023-02-01T05:04:31;-2.70;99.90
41547;DHT22;27271;45.412;10.852;2023-02-01T05:07:53;-2.70;99.90
41547;DHT22;27271;45.412;10.852;2023-02-01T05:11:15;-2.70;99.90
41547;DHT22;27271;45.412;10.852;2023-02-01T05:14:55;-2.60;99.90
41547;DHT22;27271;45.412;10.852;2023-02-01T05:18:17;-2.60;99.90
41547;DHT22;27271;45.412;10.852;2023-02-01T05:21:39;-2.60;99.90
41547;DHT22;27271;45.412;10.852;2023-02-01T05:25:02;-2.50;99.90
41547;DHT22;27271;45.412;10.852;2023-02-01T05:28:24;-2.60;99.90
41547;DHT22;27271;45.412;10.852;2023-02-01T05:31:46;-2.60;99.90
41547;DHT22;27271;45.412;10.852;2023-02-01T05:35:09;-2.70;99.90
41547;DHT22;27271;45.412;10.852;2023-02-01T05:38:31;-2.70;99.90
41547;DHT22;27271;45.412;10.852;2023-02-01T05:41:53;-2.80;99.90
41547;DHT22;27271;45.412;10.852;2023-02-01T05:49:39;-2.70;99.90
41547;DHT22;27271;45.412;10.852;2023-02-01T05:53:01;-2.80;99.90
41547;DHT22;27271;45.412;10.852;2023-02-01T05:56:23;-2.70;99.90
41547;DHT22;27271;45.412;10.852;2023-02-01T05:59:45;-2.40;99.90
41547;DHT22;27271;45.412;10.852;2023-02-01T06:03:07;-2.20;99.90
41547;DHT22;27271;45.412;10.852;2023-02-01T06:06:29;-2.20;99.90
41547;DHT22;27271;45.412;10.852;2023-02-01T06:09:51;-2.40;99.90
41547;DHT22;27271;45.412;10.852;2023-02-01T06:13:13;-2.50;99.90
41547;DHT22;27271;45.412;10.852;2023-02-01T06:16:35;-2.70;99.90
41547;DHT22;27271;45.412;10.852;2023-02-01T06:19:58;-2.70;99.90
41547;DHT22;27271;45.412;10.852;2023-02-01T06:23:20;-2.70;99.90
41547;DHT22;27271;45.412;10.852;2023-02-01T06:26:45;-2.70;99.90
41547;DHT22;27271;45.412;10.852;2023-02-01T06:30:09;-2.70;99.90
41547;DHT22;27271;45.412;10.852;2023-02-01T06:33:32;-2.70;99.90
41547;DHT22;27271;45.412;10.852;2023-02-01T06:36:55;-2.50;99.90
41547;DHT22;27271;45.412;10.852;2023-02-01T06:40:17;-2.50;99.90
41547;DHT22;27271;45.412;10.852;2023-02-01T06:43:39;-2.50;99.90
41547;DHT22;27271;45.412;10.852;2023-02-01T06:47:03;-2.50;99.90
41547;DHT22;27271;45.412;10.852;2023-02-01T06:50:27;-2.50;99.90
41547;DHT22;27271;45.412;10.852;2023-02-01T06:53:49;-2.50;99.90
41547;DHT22;27271;45.412;10.852;2023-02-01T06:57:11;-2.50;99.90
41547;DHT22;27271;45.412;10.852;2023-02-01T07:00:33;-2.40;99.90
41547;DHT22;27271;45.412;10.852;2023-02-01T07:03:57;-2.40;99.90
41547;DHT22;27271;45.412;10.852;2023-02-01T07:07:19;-2.30;99.90
41547;DHT22;27271;45.412;10.852;2023-02-01T07:10:42;-2.10;99.90
41547;DHT22;27271;45.412;10.852;2023-02-01T07:14:04;-1.90;99.90
41547;DHT22;27271;45.412;10.852;2023-02-01T07:17:26;-1.80;99.90
41547;DHT22;27271;45.412;10.852;2023-02-01T07:20:51;-1.50;99.90
41547;DHT22;27271;45.412;10.852;2023-02-01T07:24:13;-1.20;99.90
41547;DHT22;27271;45.412;10.852;2023-02-01T07:27:36;-1.00;99.90
41547;DHT22;27271;45.412;10.852;2023-02-01T07:31:06;-0.80;99.90
41547;DHT22;27271;45.412;10.852;2023-02-01T07:34:29;-0.60;99.90
41547;DHT22;27271;45.412;10.852;2023-02-01T07:37:52;-0.50;99.90
41547;DHT22;27271;45.412;10.852;2023-02-01T07:41:14;-0.40;99.90
41547;DHT22;27271;45.412;10.852;2023-02-01T07:44:36;-0.30;99.90
41547;DHT22;27271;45.412;10.852;2023-02-01T07:47:58;-0.20;99.90
41547;DHT22;27271;45.412;10.852;2023-02-01T07:51:20;0.10;99.90
41547;DHT22;27271;45.412;10.852;2023-02-01T07:54:42;0.70;99.90
41547;DHT22;27271;45.412;10.852;2023-02-01T07:58:05;1.50;99.90
41547;DHT22;27271;45.412;10.852;2023-02-01T08:01:28;2.70;99.90
41547;DHT22;27271;45.412;10.852;2023-02-01T08:04:50;3.80;99.90
41547;DHT22;27271;45.412;10.852;2023-02-01T08:08:12;4.80;81.90
41547;DHT22;27271;45.412;10.852;2023-02-01T08:11:34;5.70;1.00
41547;DHT22;27271;45.412;10.852;2023-02-01T08:14:59;6.40;99.90
41547;DHT22;27271;45.412;10.852;2023-02-01T08:18:21;7.10;32.70
41547;DHT22;27271;45.412;10.852;2023-02-01T08:21:43;7.80;99.90
41547;DHT22;27271;45.412;10.852;2023-02-01T08:25:06;8.60;99.90
41547;DHT22;27271;45.412;10.852;2023-02-01T08:28:28;8.70;19.90
41547;DHT22;27271;45.412;10.852;2023-02-01T08:31:50;9.20;1.00
41547;DHT22;27271;45.412;10.852;2023-02-01T08:35:13;9.90;1.00
41547;DHT22;27271;45.412;10.852;2023-02-01T08:38:36;10.60;1.00
41547;DHT22;27271;45.412;10.852;2023-02-01T08:41:59;11.10;1.00
41547;DHT22;27271;45.412;10.852;2023-02-01T08:45:39;11.50;1.00
41547;DHT22;27271;45.412;10.852;2023-02-01T08:49:02;11.30;1.00
41547;DHT22;27271;45.412;10.852;2023-02-01T08:52:24;11.00;1.00
41547;DHT22;27271;45.412;10.852;2023-02-01T08:55:46;11.30;1.00
41547;DHT22;27271;45.412;10.852;2023-02-01T08:59:08;11.50;1.00
41547;DHT22;27271;45.412;10.852;2023-02-01T09:02:31;11.80;1.00
41547;DHT22;27271;45.412;10.852;2023-02-01T09:06:03;12.00;1.00
41547;DHT22;27271;45.412;10.852;2023-02-01T09:09:28;12.20;1.00
41547;DHT22;27271;45.412;10.852;2023-02-01T09:12:49;12.30;1.00
41547;DHT22;27271;45.412;10.852;2023-02-01T09:16:12;12.70;1.00
41547;DHT22;27271;45.412;10.852;2023-02-01T09:19:34;13.20;1.00
41547;DHT22;27271;45.412;10.852;2023-02-01T09:22:56;13.40;1.00
41547;DHT22;27271;45.412;10.852;2023-02-01T09:26:18;13.80;1.00
41547;DHT22;27271;45.412;10.852;2023-02-01T09:29:51;14.30;1.00
41547;DHT22;27271;45.412;10.852;2023-02-01T09:33:16;14.40;1.00
41547;DHT22;27271;45.412;10.852;2023-02-01T09:36:39;14.80;1.00
41547;DHT22;27271;45.412;10.852;2023-02-01T09:40:01;14.80;1.00
41547;DHT22;27271;45.412;10.852;2023-02-01T09:43:34;14.90;1.00
41547;DHT22;27271;45.412;10.852;2023-02-01T09:47:01;15.00;1.00
41547;DHT22;27271;45.412;10.852;2023-02-01T09:50:34;15.20;1.00
41547;DHT22;27271;45.412;10.852;2023-02-01T09:54:06;14.80;1.00
41547;DHT22;27271;45.412;10.852;2023-02-01T10:01:21;13.80;1.00
41547;DHT22;27271;45.412;10.852;2023-02-01T10:04:44;13.60;1.00
41547;DHT22;27271;45.412;10.852;2023-02-01T10:08:15;13.50;1.00
41547;DHT22;27271;45.412;10.852;2023-02-01T10:15:52;13.50;1.00
41547;DHT22;27271;45.412;10.852;2023-02-01T10:30:45;13.00;1.00
41547;DHT22;27271;45.412;10.852;2023-02-01T10:34:17;12.40;1.00
41547;DHT22;27271;45.412;10.852;2023-02-01T10:37:41;12.50;1.00
41547;DHT22;27271;45.412;10.852;2023-02-01T10:41:12;12.30;1.00
41547;DHT22;27271;45.412;10.852;2023-02-01T10:44:40;12.10;1.00
41547;DHT22;27271;45.412;10.852;2023-02-01T10:48:05;12.00;1.00
41547;DHT22;27271;45.412;10.852;2023-02-01T10:55:26;12.00;1.00
41547;DHT22;27271;45.412;10.852;2023-02-01T10:58:48;11.60;1.00
41547;DHT22;27271;45.412;10.852;2023-02-01T11:02:22;11.60;1.00
41547;DHT22;27271;45.412;10.852;2023-02-01T11:05:49;11.60;1.00
41547;DHT22;27271;45.412;10.852;2023-02-01T11:09:21;11.50;1.00
41547;DHT22;27271;45.412;10.852;2023-02-01T11:12:53;11.10;1.00
41547;DHT22;27271;45.412;10.852;2023-02-01T11:16:15;11.20;1.00
41547;DHT22;27271;45.412;10.852;2023-02-01T11:19:38;11.10;1.00
41547;DHT22;27271;45.412;10.852;2023-02-01T11:23:01;11.10;1.00
41547;DHT22;27271;45.412;10.852;2023-02-01T11:26:25;11.10;1.00
41547;DHT22;27271;45.412;10.852;2023-02-01T11:29:51;10.90;1.00
41547;DHT22;27271;45.412;10.852;2023-02-01T11:33:19;10.70;1.00
41547;DHT22;27271;45.412;10.852;2023-02-01T11:36:41;10.70;1.00
41547;DHT22;27271;45.412;10.852;2023-02-01T11:40:28;10.80;1.00
41547;DHT22;27271;45.412;10.852;2023-02-01T11:43:56;10.80;1.00
41547;DHT22;27271;45.412;10.852;2023-02-01T11:47:26;10.60;1.00
41547;DHT22;27271;45.412;10.852;2023-02-01T12:42:57;9.40;1.00
41547;DHT22;27271;45.412;10.852;2023-02-01T12:46:38;9.20;1.00
41547;DHT22;27271;45.412;10.852;2023-02-01T12:50:13;9.10;1.00
41547;DHT22;27271;45.412;10.852;2023-02-01T12:57:32;8.90;1.00
41547;DHT22;27271;45.412;10.852;2023-02-01T13:01:06;9.00;1.00
41547;DHT22;27271;45.412;10.852;2023-02-01T13:04:38;9.30;1.00
41547;DHT22;27271;45.412;10.852;2023-02-01T13:08:08;9.40;1.00
41547;DHT22;27271;45.412;10.852;2023-02-01T13:11:35;9.60;1.00
41547;DHT22;27271;45.412;10.852;2023-02-01T13:15:13;9.60;1.00
41547;DHT22;27271;45.412;10.852;2023-02-01T13:18:39;9.70;1.00
41547;DHT22;27271;45.412;10.852;2023-02-01T13:22:15;9.70;1.00
41547;DHT22;27271;45.412;10.852;2023-02-01T13:25:47;9.60;1.00
41547;DHT22;27271;45.412;10.852;2023-02-01T13:29:11;9.50;1.00
41547;DHT22;27271;45.412;10.852;2023-02-01T13:37:08;9.50;1.00
41547;DHT22;27271;45.412;10.852;2023-02-01T13:40:18;9.60;1.00
41547;DHT22;27271;45.412;10.852;2023-02-01T13:43:51;9.50;1.00
41547;DHT22;27271;45.412;10.852;2023-02-01T13:47:30;9.40;1.00
41547;DHT22;27271;45.412;10.852;2023-02-01T13:50:56;9.40;1.00
41547;DHT22;27271;45.412;10.852;2023-02-01T13:54:37;9.40;1.00
41547;DHT22;27271;45.412;10.852;2023-02-01T13:58:21;9.40;1.00
41547;DHT22;27271;45.412;10.852;2023-02-01T14:01:43;9.30;1.00
41547;DHT22;27271;45.412;10.852;2023-02-01T14:09:05;9.30;1.00
41547;DHT22;27271;45.412;10.852;2023-02-01T14:12:45;9.30;1.00
41547;DHT22;27271;45.412;10.852;2023-02-01T14:16:14;9.40;1.00
41547;DHT22;27271;45.412;10.852;2023-02-01T14:19:37;9.40;1.00
41547;DHT22;27271;45.412;10.852;2023-02-01T14:23:03;9.40;1.00
41547;DHT22;27271;45.412;10.852;2023-02-01T14:30:02;9.40;1.00
41547;DHT22;27271;45.412;10.852;2023-02-01T14:33:28;9.40;1.00
41547;DHT22;27271;45.412;10.852;2023-02-01T14:36:54;9.40;1.00
41547;DHT22;27271;45.412;10.852;2023-02-01T14:40:24;9.30;1.00
41547;DHT22;27271;45.412;10.852;2023-02-01T14:43:51;9.20;3.00
41547;DHT22;27271;45.412;10.852;2023-02-01T14:47:33;9.20;8.10
41547;DHT22;27271;45.412;10.852;2023-02-01T14:50:57;9.10;10.10
41547;DHT22;27271;45.412;10.852;2023-02-01T14:54:19;9.10;15.90
41547;DHT22;27271;45.412;10.852;2023-02-01T14:57:43;9.00;45.80
41547;DHT22;27271;45.412;10.852;2023-02-01T15:04:46;8.90;77.80
41547;DHT22;27271;45.412;10.852;2023-02-01T15:08:19;8.80;83.80
41547;DHT22;27271;45.412;10.852;2023-02-01T15:15:32;8.60;99.90
41547;DHT22;27271;45.412;10.852;2023-02-01T15:19:10;8.50;99.90
41547;DHT22;27271;45.412;10.852;2023-02-01T15:22:32;8.40;99.90
41547;DHT22;27271;45.412;10.852;2023-02-01T15:25:54;8.20;99.90
41547;DHT22;27271;45.412;10.852;2023-02-01T15:29:18;8.10;99.90
41547;DHT22;27271;45.412;10.852;2023-02-01T15:32:40;8.00;99.90
41547;DHT22;27271;45.412;10.852;2023-02-01T15:39:27;7.80;99.90
41547;DHT22;27271;45.412;10.852;2023-02-01T15:42:55;7.60;1.00
41547;DHT22;27271;45.412;10.852;2023-02-01T15:46:30;7.40;1.00
41547;DHT22;27271;45.412;10.852;2023-02-01T15:49:57;7.20;99.90
41547;DHT22;27271;45.412;10.852;2023-02-01T15:53:22;7.00;99.90
41547;DHT22;27271;45.412;10.852;2023-02-01T15:56:49;6.80;1.00
41547;DHT22;27271;45.412;10.852;2023-02-01T16:00:34;6.60;84.60
41547;DHT22;27271;45.412;10.852;2023-02-01T16:04:22;6.50;99.90
41547;DHT22;27271;45.412;10.852;2023-02-01T16:08:17;6.20;99.90
41547;DHT22;27271;45.412;10.852;2023-02-01T16:15:16;5.90;99.90
41547;DHT22;27271;45.412;10.852;2023-02-01T16:18:38;5.70;99.90
41547;DHT22;27271;45.412;10.852;2023-02-01T16:22:00;5.50;99.90
41547;DHT22;27271;45.412;10.852;2023-02-01T16:25:22;5.40;1.00
41547;DHT22;27271;45.412;10.852;2023-02-01T16:28:45;5.30;1.00
41547;DHT22;27271;45.412;10.852;2023-02-01T16:32:14;5.30;1.00
41547;DHT22;27271;45.412;10.852;2023-02-01T16:35:38;5.10;1.00
41547;DHT22;27271;45.412;10.852;2023-02-01T16:39:00;4.90;1.00
41547;DHT22;27271;45.412;10.852;2023-02-01T16:42:22;4.80;1.00
41547;DHT22;27271;45.412;10.852;2023-02-01T16:45:45;4.60;1.00
41547;DHT22;27271;45.412;10.852;2023-02-01T16:49:20;4.50;1.00
41547;DHT22;27271;45.412;10.852;2023-02-01T16:52:42;4.40;1.00
41547;DHT22;27271;45.412;10.852;2023-02-01T16:56:17;4.40;26.40
41547;DHT22;27271;45.412;10.852;2023-02-01T16:59:39;4.40;40.70
41547;DHT22;27271;45.412;10.852;2023-02-01T17:03:01;4.40;72.50
41547;DHT22;27271;45.412;10.852;2023-02-01T17:06:25;4.30;61.10
41547;DHT22;27271;45.412;10.852;2023-02-01T17:09:49;4.20;66.40
41547;DHT22;27271;45.412;10.852;2023-02-01T17:13:15;4.10;34.00
41547;DHT22;27271;45.412;10.852;2023-02-01T17:16:37;4.00;66.50
41547;DHT22;27271;45.412;10.852;2023-02-01T17:19:59;3.90;91.80
41547;DHT22;27271;45.412;10.852;2023-02-01T17:23:22;3.80;68.70
41547;DHT22;27271;45.412;10.852;2023-02-01T17:26:44;3.70;81.70
41547;DHT22;27271;45.412;10.852;2023-02-01T17:30:07;3.70;76.40
41547;DHT22;27271;45.412;10.852;2023-02-01T17:33:34;3.60;90.50
41547;DHT22;27271;45.412;10.852;2023-02-01T17:36:57;3.50;78.70
41547;DHT22;27271;45.412;10.852;2023-02-01T17:40:19;3.40;61.00
41547;DHT22;27271;45.412;10.852;2023-02-01T17:43:41;3.30;63.00
41547;DHT22;27271;45.412;10.852;2023-02-01T17:47:03;3.20;82.00
41547;DHT22;27271;45.412;10.852;2023-02-01T17:50:27;3.20;99.90
41547;DHT22;27271;45.412;10.852;2023-02-01T17:53:50;3.20;99.90
41547;DHT22;27271;45.412;10.852;2023-02-01T17:57:12;3.10;99.90
41547;DHT22;27271;45.412;10.852;2023-02-01T18:00:35;3.10;99.90
41547;DHT22;27271;45.412;10.852;2023-02-01T18:03:59;3.00;99.90
41547;DHT22;27271;45.412;10.852;2023-02-01T18:07:21;2.90;99.90
41547;DHT22;27271;45.412;10.852;2023-02-01T18:10:43;2.90;99.90
41547;DHT22;27271;45.412;10.852;2023-02-01T18:14:05;2.80;99.90
41547;DHT22;27271;45.412;10.852;2023-02-01T18:17:27;2.70;99.90
41547;DHT22;27271;45.412;10.852;2023-02-01T18:20:49;2.70;99.90
41547;DHT22;27271;45.412;10.852;2023-02-01T18:24:13;2.70;99.90
41547;DHT22;27271;45.412;10.852;2023-02-01T18:27:35;2.70;99.90
41547;DHT22;27271;45.412;10.852;2023-02-01T18:30:57;2.60;99.90
41547;DHT22;27271;45.412;10.852;2023-02-01T18:34:20;2.60;99.90
41547;DHT22;27271;45.412;10.852;2023-02-01T18:37:44;2.60;99.90
41547;DHT22;27271;45.412;10.852;2023-02-01T18:41:12;2.50;99.90
41547;DHT22;27271;45.412;10.852;2023-02-01T18:44:36;2.40;99.90
41547;DHT22;27271;45.412;10.852;2023-02-01T18:47:58;2.20;99.90
41547;DHT22;27271;45.412;10.852;2023-02-01T18:51:20;2.10;99.90
41547;DHT22;27271;45.412;10.852;2023-02-01T18:54:44;2.10;99.90
41547;DHT22;27271;45.412;10.852;2023-02-01T18:58:20;2.10;99.90
41547;DHT22;27271;45.412;10.852;2023-02-01T19:01:43;2.20;99.90
41547;DHT22;27271;45.412;10.852;2023-02-01T19:05:07;2.20;99.90
41547;DHT22;27271;45.412;10.852;2023-02-01T19:08:29;2.20;99.90
41547;DHT22;27271;45.412;10.852;2023-02-01T19:11:51;2.20;99.90
41547;DHT22;27271;45.412;10.852;2023-02-01T19:15:13;2.10;99.90
41547;DHT22;27271;45.412;10.852;2023-02-01T19:18:36;2.10;99.90
41547;DHT22;27271;45.412;10.852;2023-02-01T19:21:58;2.10;99.90
41547;DHT22;27271;45.412;10.852;2023-02-01T19:25:23;2.10;99.90
41547;DHT22;27271;45.412;10.852;2023-02-01T19:28:45;2.00;99.90
41547;DHT22;27271;45.412;10.852;2023-02-01T19:32:09;2.00;99.90
41547;DHT22;27271;45.412;10.852;2023-02-01T19:35:32;1.90;99.90
41547;DHT22;27271;45.412;10.852;2023-02-01T19:38:54;1.90;99.90
41547;DHT22;27271;45.412;10.852;2023-02-01T19:42:16;1.90;99.90
41547;DHT22;27271;45.412;10.852;2023-02-01T19:45:38;2.00;99.90
41547;DHT22;27271;45.412;10.852;2023-02-01T19:48:59;1.90;99.90
41547;DHT22;27271;45.412;10.852;2023-02-01T19:52:22;1.90;99.90
41547;DHT22;27271;45.412;10.852;2023-02-01T19:55:45;1.90;99.90
41547;DHT22;27271;45.412;10.852;2023-02-01T19:59:07;1.90;99.90
41547;DHT22;27271;45.412;10.852;2023-02-01T20:02:29;1.80;99.90
41547;DHT22;27271;45.412;10.852;2023-02-01T20:05:53;1.70;99.90
41547;DHT22;27271;45.412;10.852;2023-02-01T20:09:17;1.70;99.90
41547;DHT22;27271;45.412;10.852;2023-02-01T20:12:39;1.70;99.90
41547;DHT22;27271;45.412;10.852;2023-02-01T20:16:02;1.70;99.90
41547;DHT22;27271;45.412;10.852;2023-02-01T20:19:24;1.60;99.90
41547;DHT22;27271;45.412;10.852;2023-02-01T20:22:46;1.60;99.90
41547;DHT22;27271;45.412;10.852;2023-02-01T20:26:10;1.50;99.90
41547;DHT22;27271;45.412;10.852;2023-02-01T20:29:33;1.40;99.90
41547;DHT22;27271;45.412;10.852;2023-02-01T20:32:55;1.30;99.90
41547;DHT22;27271;45.412;10.852;2023-02-01T20:36:17;1.20;99.90
41547;DHT22;27271;45.412;10.852;2023-02-01T20:39:39;1.10;99.90
41547;DHT22;27271;45.412;10.852;2023-02-01T20:43:01;1.00;99.90
41547;DHT22;27271;45.412;10.852;2023-02-01T20:46:23;0.90;99.90
41547;DHT22;27271;45.412;10.852;2023-02-01T20:49:45;0.90;99.90
41547;DHT22;27271;45.412;10.852;2023-02-01T20:53:07;0.80;99.90
41547;DHT22;27271;45.412;10.852;2023-02-01T20:56:37;0.80;99.90
41547;DHT22;27271;45.412;10.852;2023-02-01T21:00:00;0.80;99.90
41547;DHT22;27271;45.412;10.852;2023-02-01T21:03:22;0.90;99.90
41547;DHT22;27271;45.412;10.852;2023-02-01T21:06:45;0.90;99.90
41547;DHT22;27271;45.412;10.852;2023-02-01T21:10:08;0.90;99.90
41547;DHT22;27271;45.412;10.852;2023-02-01T21:13:32;0.90;99.90
41547;DHT22;27271;45.412;10.852;2023-02-01T21:16:56;0.70;99.90
41547;DHT22;27271;45.412;10.852;2023-02-01T21:20:19;0.70;99.90
41547;DHT22;27271;45.412;10.852;2023-02-01T21:23:41;0.70;99.90
41547;DHT22;27271;45.412;10.852;2023-02-01T21:27:09;0.70;99.90
41547;DHT22;27271;45.412;10.852;2023-02-01T21:30:31;0.60;99.90
41547;DHT22;27271;45.412;10.852;2023-02-01T21:33:54;0.50;99.90
41547;DHT22;27271;45.412;10.852;2023-02-01T21:37:17;0.40;99.90
41547;DHT22;27271;45.412;10.852;2023-02-01T21:40:39;0.30;99.90
41547;DHT22;27271;45.412;10.852;2023-02-01T21:44:01;0.30;99.90
41547;DHT22;27271;45.412;10.852;2023-02-01T21:47:23;0.20;99.90
41547;DHT22;27271;45.412;10.852;2023-02-01T21:50:47;0.20;99.90
41547;DHT22;27271;45.412;10.852;2023-02-01T21:54:10;0.20;99.90
41547;DHT22;27271;45.412;10.852;2023-02-01T21:57:32;0.10;99.90
41547;DHT22;27271;45.412;10.852;2023-02-01T22:00:55;0.10;99.90
41547;DHT22;27271;45.412;10.852;2023-02-01T22:04:17;0.00;99.90
41547;DHT22;27271;45.412;10.852;2023-02-01T22:07:39;-0.10;99.90
41547;DHT22;27271;45.412;10.852;2023-02-01T22:11:02;-0.10;99.90
41547;DHT22;27271;45.412;10.852;2023-02-01T22:14:23;-0.20;99.90
41547;DHT22;27271;45.412;10.852;2023-02-01T22:17:45;-0.20;99.90
41547;DHT22;27271;45.412;10.852;2023-02-01T22:21:08;-0.30;99.90
41547;DHT22;27271;45.412;10.852;2023-02-01T22:24:30;-0.20;99.90
41547;DHT22;27271;45.412;10.852;2023-02-01T22:27:52;-0.20;99.90
41547;DHT22;27271;45.412;10.852;2023-02-01T22:31:35;-0.10;99.90
41547;DHT22;27271;45.412;10.852;2023-02-01T22:34:57;-0.10;99.90
41547;DHT22;27271;45.412;10.852;2023-02-01T22:38:21;-0.10;99.90
41547;DHT22;27271;45.412;10.852;2023-02-01T22:41:43;-0.20;99.90
41547;DHT22;27271;45.412;10.852;2023-02-01T22:45:05;-0.20;99.90
41547;DHT22;27271;45.412;10.852;2023-02-01T22:48:29;-0.20;99.90
41547;DHT22;27271;45.412;10.852;2023-02-01T22:51:51;-0.20;99.90
41547;DHT22;27271;45.412;10.852;2023-02-01T22:55:13;-0.10;99.90
41547;DHT22;27271;45.412;10.852;2023-02-01T22:58:35;-0.10;99.90
41547;DHT22;27271;45.412;10.852;2023-02-01T23:01:57;-0.20;99.90
41547;DHT22;27271;45.412;10.852;2023-02-01T23:05:20;-0.30;99.90
41547;DHT22;27271;45.412;10.852;2023-02-01T23:08:43;-0.40;99.90
41547;DHT22;27271;45.412;10.852;2023-02-01T23:12:05;-0.40;99.90
41547;DHT22;27271;45.412;10.852;2023-02-01T23:15:28;-0.40;99.90
41547;DHT22;27271;45.412;10.852;2023-02-01T23:18:50;-0.40;99.90
41547;DHT22;27271;45.412;10.852;2023-02-01T23:22:12;-0.30;99.90
41547;DHT22;27271;45.412;10.852;2023-02-01T23:25:34;-0.40;99.90
41547;DHT22;27271;45.412;10.852;2023-02-01T23:28:57;-0.50;99.90
41547;DHT22;27271;45.412;10.852;2023-02-01T23:32:19;-0.60;99.90
41547;DHT22;27271;45.412;10.852;2023-02-01T23:35:41;-0.60;99.90
41547;DHT22;27271;45.412;10.852;2023-02-01T23:39:03;-0.60;99.90
41547;DHT22;27271;45.412;10.852;2023-02-01T23:42:25;-0.70;99.90
41547;DHT22;27271;45.412;10.852;2023-02-01T23:45:47;-0.70;99.90
41547;DHT22;27271;45.412;10.852;2023-02-01T23:49:09;-0.80;99.90
41547;DHT22;27271;45.412;10.852;2023-02-01T23:52:31;-0.90;99.90
41547;DHT22;27271;45.412;10.852;2023-02-01T23:55:54;-0.90;99.90
41547;DHT22;27271;45.412;10.852;2023-02-01T23:59:19;-0.90;99.90
